createdAt,value
2023-04-06T00:01:09.966Z,4.68
2023-04-06T00:03:37.245Z,4.22
2023-04-06T00:06:04.526Z,5.05
2023-04-06T00:10:58.173Z,4.75
2023-04-06T00:13:25.187Z,4.03
2023-04-06T00:15:52.063Z,3.95
2023-04-06T00:18:19.105Z,4.05
2023-04-06T00:20:46.187Z,3.88
2023-04-06T00:23:12.913Z,4.13
2023-04-06T00:25:39.775Z,3.78
2023-04-06T00:28:06.573Z,3.95
2023-04-06T00:30:33.407Z,4.43
2023-04-06T00:33:00.328Z,4.13
2023-04-06T00:35:27.292Z,4.28
2023-04-06T00:37:54.043Z,4.60
2023-04-06T00:40:20.962Z,5.03
2023-04-06T00:45:14.961Z,4.47
2023-04-06T00:47:41.910Z,4.70
2023-04-06T00:50:09.144Z,4.70
2023-04-06T00:52:36.710Z,4.13
2023-04-06T00:55:05.518Z,5.32
2023-04-06T00:57:35.368Z,4.80
2023-04-06T01:00:02.307Z,4.55
2023-04-06T01:02:29.248Z,5.05
2023-04-06T01:04:56.220Z,4.68
2023-04-06T01:07:32.188Z,4.57
2023-04-06T01:10:28.233Z,5.65
2023-04-06T01:13:13.133Z,4.68
2023-04-06T01:15:53.557Z,4.43
2023-04-06T01:18:33.165Z,4.63
2023-04-06T01:21:16.531Z,4.70
2023-04-06T01:23:57.360Z,4.47
2023-04-06T01:26:32.009Z,5.45
2023-04-06T01:29:01.335Z,4.72
2023-04-06T01:31:29.973Z,4.63
2023-04-06T01:36:26.159Z,4.88
2023-04-06T01:39:01.859Z,4.30
2023-04-06T01:41:34.950Z,4.82
2023-04-06T01:44:02.799Z,4.50
2023-04-06T01:46:31.292Z,4.93
2023-04-06T01:48:59.364Z,3.88
2023-04-06T01:51:34.270Z,4.47
2023-04-06T01:54:03.526Z,4.30
2023-04-06T01:56:51.190Z,5.20
2023-04-06T01:59:30.705Z,5.03
2023-04-06T02:01:59.679Z,4.70
2023-04-06T02:04:27.857Z,4.88
2023-04-06T02:07:04.983Z,4.28
2023-04-06T02:09:32.237Z,4.45
2023-04-06T02:11:59.851Z,4.82
2023-04-06T02:14:27.386Z,4.80
2023-04-06T02:16:57.846Z,5.90
2023-04-06T02:21:51.641Z,4.85
2023-04-06T02:24:18.520Z,4.70
2023-04-06T02:26:45.274Z,5.00
2023-04-06T02:29:12.366Z,4.22
2023-04-06T02:31:39.246Z,5.38
2023-04-06T02:34:08.228Z,5.00
2023-04-06T02:36:35.459Z,5.55
2023-04-06T02:39:02.389Z,5.13
2023-04-06T02:41:30.106Z,5.03
2023-04-06T02:43:58.934Z,5.72
2023-04-06T02:46:37.838Z,5.50
2023-04-06T02:49:04.811Z,5.78
2023-04-06T02:51:34.487Z,5.65
2023-04-06T02:54:15.459Z,6.10
2023-04-06T02:56:42.615Z,6.00
2023-04-06T03:01:37.249Z,5.47
2023-04-06T03:04:06.339Z,4.72
2023-04-06T03:06:33.288Z,6.40
2023-04-06T03:09:10.233Z,5.55
2023-04-06T03:11:39.664Z,6.07
2023-04-06T03:16:34.892Z,5.55
2023-04-06T03:19:02.923Z,6.30
2023-04-06T03:21:33.645Z,7.05
2023-04-06T03:24:01.422Z,6.60
2023-04-06T03:26:28.276Z,6.35
2023-04-06T03:28:55.303Z,5.43
2023-04-06T03:31:27.984Z,6.03
2023-04-06T03:34:00.352Z,4.57
2023-04-06T03:36:31.886Z,4.63
2023-04-06T03:38:59.521Z,6.05
2023-04-06T03:41:26.484Z,4.78
2023-04-06T03:44:06.689Z,4.97
2023-04-06T03:46:33.617Z,5.88
2023-04-06T03:49:01.277Z,5.68
2023-04-06T03:51:28.942Z,5.25
2023-04-06T03:56:22.585Z,5.40
2023-04-06T03:58:51.784Z,5.47
2023-04-06T04:01:21.163Z,5.95
2023-04-06T04:03:49.588Z,5.20
2023-04-06T04:06:18.402Z,5.25
2023-04-06T04:08:45.379Z,6.15
2023-04-06T04:11:12.186Z,5.60
2023-04-06T04:13:39.221Z,5.55
2023-04-06T04:16:07.640Z,6.82
2023-04-06T04:18:36.161Z,5.15
2023-04-06T04:21:02.998Z,5.32
2023-04-06T04:23:30.074Z,6.18
2023-04-06T04:25:57.015Z,6.63
2023-04-06T04:28:23.908Z,5.15
2023-04-06T04:30:54.476Z,5.65
2023-04-06T04:33:22.388Z,5.45
2023-04-06T04:35:52.076Z,6.03
2023-04-06T04:38:21.532Z,5.47
2023-04-06T04:40:52.522Z,5.50
2023-04-06T04:43:19.439Z,6.63
2023-04-06T04:45:46.850Z,5.78
2023-04-06T04:48:24.009Z,5.63
2023-04-06T04:50:56.239Z,4.97
2023-04-06T04:53:26.483Z,5.95
2023-04-06T04:55:59.905Z,6.13
2023-04-06T04:58:27.874Z,6.30
2023-04-06T05:00:57.733Z,6.80
2023-04-06T05:03:26.859Z,6.50
2023-04-06T05:06:00.591Z,6.30
2023-04-06T05:08:31.414Z,6.70
2023-04-06T05:13:26.238Z,5.25
2023-04-06T05:15:55.171Z,8.10
2023-04-06T05:18:29.272Z,6.93
2023-04-06T05:20:57.478Z,7.53
2023-04-06T05:23:32.579Z,7.10
2023-04-06T05:26:02.380Z,7.97
2023-04-06T05:30:56.409Z,7.88
2023-04-06T05:36:02.002Z,7.43
2023-04-06T05:38:29.569Z,7.00
2023-04-06T05:40:59.955Z,7.70
2023-04-06T05:43:31.000Z,6.20
2023-04-06T05:46:02.309Z,7.75
2023-04-06T05:48:29.178Z,5.68
2023-04-06T05:50:56.084Z,6.30
2023-04-06T05:53:30.131Z,5.95
2023-04-06T05:56:03.618Z,5.85
2023-04-06T05:58:31.018Z,6.43
2023-04-06T06:01:03.880Z,6.07
2023-04-06T06:03:38.434Z,5.13
2023-04-06T06:06:07.127Z,6.10
2023-04-06T06:08:44.408Z,6.10
2023-04-06T06:11:15.457Z,7.82
2023-04-06T06:13:42.507Z,7.35
2023-04-06T06:16:10.198Z,6.85
2023-04-06T06:18:43.175Z,6.00
2023-04-06T06:21:10.367Z,6.72
2023-04-06T06:23:38.898Z,6.57
2023-04-06T06:26:05.958Z,6.60
2023-04-06T06:28:33.145Z,6.13
2023-04-06T06:31:00.001Z,8.18
2023-04-06T06:35:55.734Z,6.43
2023-04-06T06:38:24.006Z,7.88
2023-04-06T06:40:51.659Z,7.43
2023-04-06T06:43:19.824Z,7.53
2023-04-06T06:45:59.971Z,7.88
2023-04-06T06:48:26.916Z,7.50
2023-04-06T06:50:54.499Z,8.63
2023-04-06T06:55:49.866Z,8.00
2023-04-06T06:58:23.180Z,7.75
2023-04-06T07:00:50.277Z,8.60
2023-04-06T07:03:17.119Z,9.02
2023-04-06T07:05:54.189Z,8.65
2023-04-06T07:08:23.594Z,9.68
2023-04-06T07:10:53.307Z,9.80
2023-04-06T07:13:24.308Z,10.10
2023-04-06T07:15:53.909Z,10.23
2023-04-06T07:18:21.542Z,9.75
2023-04-06T07:20:48.697Z,9.40
2023-04-06T07:23:16.427Z,10.00
2023-04-06T07:25:43.474Z,9.30
2023-04-06T07:28:10.782Z,9.60
2023-04-06T07:30:38.848Z,10.20
2023-04-06T07:33:06.895Z,9.50
2023-04-06T07:35:37.552Z,10.82
2023-04-06T07:38:05.557Z,10.40
2023-04-06T07:40:33.961Z,12.00
2023-04-06T07:43:00.949Z,9.80
2023-04-06T07:45:27.954Z,10.20
2023-04-06T07:47:55.946Z,11.82
2023-04-06T07:50:25.383Z,10.13
2023-04-06T07:52:53.453Z,10.52
2023-04-06T07:57:47.376Z,10.52
2023-04-06T08:00:14.706Z,11.57
2023-04-06T08:02:41.686Z,10.93
2023-04-06T08:05:08.943Z,12.88
2023-04-06T08:07:36.882Z,11.20
2023-04-06T08:10:04.150Z,11.00
2023-04-06T08:12:31.333Z,12.15
2023-04-06T08:17:25.192Z,10.70
2023-04-06T08:19:52.072Z,11.38
2023-04-06T08:22:18.903Z,11.02
2023-04-06T08:24:45.784Z,11.00
2023-04-06T08:27:14.256Z,10.98
2023-04-06T08:29:41.619Z,11.68
2023-04-06T08:32:08.594Z,11.35
2023-04-06T08:34:35.462Z,9.68
2023-04-06T08:37:02.319Z,10.18
2023-04-06T08:39:31.567Z,10.50
2023-04-06T08:42:00.547Z,10.52
2023-04-06T08:44:28.103Z,10.35
2023-04-06T08:46:55.782Z,9.57
2023-04-06T08:49:22.783Z,9.98
2023-04-06T08:51:50.616Z,8.68
2023-04-06T08:54:18.659Z,9.88
2023-04-06T08:56:45.966Z,9.00
2023-04-06T08:59:13.459Z,9.70
2023-04-06T09:01:44.774Z,9.63
2023-04-06T09:04:13.440Z,9.82
2023-04-06T09:06:42.036Z,8.48
2023-04-06T09:09:09.464Z,8.38
2023-04-06T09:12:06.810Z,8.10
2023-04-06T09:14:40.403Z,8.73
2023-04-06T09:17:07.355Z,9.13
2023-04-06T09:19:34.257Z,8.85
2023-04-06T09:22:10.594Z,9.18
2023-04-06T09:24:55.727Z,9.30
2023-04-06T09:27:36.696Z,8.18
2023-04-06T09:30:14.836Z,9.35
2023-04-06T09:32:50.651Z,9.25
2023-04-06T09:35:18.631Z,7.47
2023-04-06T09:37:45.620Z,8.70
2023-04-06T09:40:13.037Z,9.10
2023-04-06T09:42:42.675Z,9.05
2023-04-06T09:45:09.958Z,9.13
2023-04-06T09:47:37.981Z,8.90
2023-04-06T09:50:05.269Z,8.45
2023-04-06T09:52:43.728Z,10.23
2023-04-06T09:55:11.331Z,9.10
2023-04-06T09:57:50.170Z,9.30
2023-04-06T10:00:21.743Z,9.23
2023-04-06T10:02:56.293Z,9.80
2023-04-06T10:06:01.958Z,8.75
2023-04-06T10:08:32.567Z,8.75
2023-04-06T10:11:01.613Z,9.43
2023-04-06T10:13:28.421Z,9.40
2023-04-06T10:15:56.061Z,10.80
2023-04-06T10:18:23.539Z,9.80
2023-04-06T10:20:57.045Z,10.57
2023-04-06T10:23:42.566Z,10.20
2023-04-06T10:26:14.845Z,9.98
2023-04-06T10:28:44.130Z,10.77
2023-04-06T10:31:11.018Z,9.68
2023-04-06T10:33:37.963Z,10.75
2023-04-06T10:36:23.332Z,10.73
2023-04-06T10:38:56.717Z,9.93
2023-04-06T10:41:23.580Z,10.30
2023-04-06T10:43:57.607Z,10.43
2023-04-06T10:46:30.675Z,10.27
2023-04-06T10:48:58.317Z,10.27
2023-04-06T10:51:29.496Z,10.90
2023-04-06T10:53:56.710Z,10.25
2023-04-06T10:56:26.436Z,9.85
2023-04-06T10:58:56.694Z,10.60
2023-04-06T11:01:24.924Z,9.63
2023-04-06T11:03:54.603Z,8.73
2023-04-06T11:06:23.757Z,9.35
2023-04-06T11:08:51.938Z,9.10
2023-04-06T11:11:21.090Z,9.40
2023-04-06T11:13:54.931Z,9.52
2023-04-06T11:16:26.665Z,8.52
2023-04-06T11:19:10.446Z,10.05
2023-04-06T11:21:50.826Z,9.88
2023-04-06T11:24:20.272Z,8.77
2023-04-06T11:26:58.130Z,9.27
2023-04-06T11:29:27.842Z,10.27
2023-04-06T11:31:59.654Z,8.43
2023-04-06T11:34:28.798Z,10.88
2023-04-06T11:36:58.225Z,9.30
2023-04-06T11:39:26.625Z,11.35
2023-04-06T11:42:01.623Z,10.20
2023-04-06T11:44:32.532Z,9.88
2023-04-06T11:46:59.845Z,11.55
2023-04-06T11:49:30.722Z,10.20
2023-04-06T11:51:59.518Z,9.90
2023-04-06T11:54:34.788Z,10.23
2023-04-06T11:57:02.596Z,9.98
2023-04-06T11:59:29.620Z,10.73
2023-04-06T12:01:57.928Z,10.38
2023-04-06T12:04:25.472Z,10.10
2023-04-06T12:06:52.358Z,10.43
2023-04-06T12:09:19.461Z,10.82
2023-04-06T12:11:46.518Z,10.63
2023-04-06T12:14:14.209Z,10.32
2023-04-06T12:16:41.572Z,12.18
2023-04-06T12:19:08.484Z,10.57
2023-04-06T12:21:37.838Z,10.32
2023-04-06T12:24:06.212Z,9.60
2023-04-06T12:26:33.904Z,10.65
2023-04-06T12:29:07.934Z,10.38
2023-04-06T12:31:43.879Z,11.27
2023-04-06T12:34:10.939Z,11.65
2023-04-06T12:36:38.962Z,9.68
2023-04-06T12:39:07.341Z,10.63
2023-04-06T12:41:34.416Z,11.07
2023-04-06T12:44:01.676Z,10.18
2023-04-06T12:46:28.620Z,8.52
2023-04-06T12:48:55.991Z,9.02
2023-04-06T12:51:22.924Z,9.05
2023-04-06T12:53:49.909Z,9.35
2023-04-06T12:56:18.603Z,9.13
2023-04-06T12:58:46.315Z,9.65
2023-04-06T13:01:16.940Z,10.38
2023-04-06T13:03:44.029Z,9.00
2023-04-06T13:06:11.413Z,8.98
2023-04-06T13:08:40.391Z,9.40
2023-04-06T13:11:10.494Z,8.43
2023-04-06T13:13:38.078Z,8.05
2023-04-06T13:16:09.715Z,9.82
2023-04-06T13:18:39.339Z,8.63
2023-04-06T13:21:07.360Z,9.05
2023-04-06T13:23:35.830Z,7.40
2023-04-06T13:26:06.265Z,8.38
2023-04-06T13:28:34.419Z,8.93
2023-04-06T13:31:03.161Z,8.05
2023-04-06T13:33:31.794Z,8.63
2023-04-06T13:36:03.078Z,6.93
2023-04-06T13:38:31.056Z,7.82
2023-04-06T13:40:57.830Z,8.00
2023-04-06T13:43:27.158Z,6.55
2023-04-06T13:45:56.263Z,7.63
2023-04-06T13:48:23.519Z,8.18
2023-04-06T13:50:50.687Z,7.00
2023-04-06T13:53:17.492Z,7.45
2023-04-06T13:55:44.512Z,7.85
2023-04-06T13:58:11.442Z,6.80
2023-04-06T14:00:38.984Z,7.75
2023-04-06T14:03:07.427Z,7.28
2023-04-06T14:05:34.451Z,7.88
2023-04-06T14:08:01.538Z,7.93
2023-04-06T14:10:28.954Z,9.15
2023-04-06T14:12:56.981Z,7.20
2023-04-06T14:15:24.828Z,7.70
2023-04-06T14:17:52.283Z,6.80
2023-04-06T14:20:19.748Z,7.65
2023-04-06T14:22:47.367Z,7.32
2023-04-06T14:25:14.509Z,7.65
2023-04-06T14:27:41.371Z,8.15
2023-04-06T14:30:09.202Z,7.80
2023-04-06T14:32:37.378Z,7.93
2023-04-06T14:35:07.347Z,7.97
2023-04-06T14:37:34.910Z,7.93
2023-04-06T14:40:01.902Z,9.30
2023-04-06T14:42:28.740Z,8.30
2023-04-06T14:47:22.504Z,8.00
2023-04-06T14:49:52.260Z,9.02
2023-04-06T14:52:19.000Z,8.68
2023-04-06T14:57:12.642Z,8.27
2023-04-06T15:02:08.162Z,8.15
2023-04-06T15:04:37.084Z,8.35
2023-04-06T15:07:04.049Z,8.13
2023-04-06T15:09:31.398Z,8.50
2023-04-06T15:11:58.392Z,8.82
2023-04-06T15:14:25.208Z,7.95
2023-04-06T15:19:18.842Z,8.02
2023-04-06T15:21:45.723Z,7.47
2023-04-06T15:26:39.173Z,6.63
2023-04-06T15:29:06.324Z,6.55
2023-04-06T15:31:38.267Z,5.68
2023-04-06T15:34:08.758Z,6.13
2023-04-06T15:36:36.306Z,6.47
2023-04-06T15:39:04.311Z,5.95
2023-04-06T15:41:31.808Z,5.93
2023-04-06T15:43:58.693Z,5.90
2023-04-06T15:48:54.893Z,5.50
2023-04-06T15:53:48.744Z,5.72
2023-04-06T15:58:42.726Z,5.70
2023-04-06T16:01:16.896Z,4.90
2023-04-06T16:03:44.346Z,5.05
2023-04-06T16:06:12.082Z,5.18
2023-04-06T16:08:40.441Z,4.72
2023-04-06T16:11:07.517Z,3.72
2023-04-06T16:13:34.253Z,4.18
2023-04-06T16:16:01.308Z,4.65
2023-04-06T16:18:28.217Z,5.43
2023-04-06T16:23:22.223Z,4.85
2023-04-06T16:25:50.542Z,4.80
2023-04-06T16:28:17.777Z,4.65
2023-04-06T16:30:46.697Z,4.72
2023-04-06T16:33:17.121Z,4.80
2023-04-06T16:35:48.283Z,4.50
2023-04-06T16:38:16.636Z,5.15
2023-04-06T16:40:43.486Z,5.07
2023-04-06T16:43:10.372Z,3.60
2023-04-06T16:48:05.860Z,3.65
2023-04-06T16:50:32.786Z,3.53
2023-04-06T16:55:26.194Z,4.45
2023-04-06T16:57:55.792Z,4.47
2023-04-06T17:00:22.921Z,3.70
2023-04-06T17:02:49.989Z,3.55
2023-04-06T17:05:21.693Z,3.58
2023-04-06T17:07:48.663Z,2.80
2023-04-06T17:12:43.280Z,2.20
2023-04-06T17:15:10.598Z,2.28
2023-04-06T17:17:37.319Z,2.47
2023-04-06T17:20:04.485Z,2.15
2023-04-06T17:22:31.406Z,2.42
2023-04-06T17:27:26.542Z,3.00
2023-04-06T17:29:53.451Z,3.35
2023-04-06T17:34:48.761Z,3.40
2023-04-06T17:37:15.538Z,2.75
2023-04-06T17:39:42.429Z,3.00
2023-04-06T17:42:09.182Z,2.58
2023-04-06T17:44:36.333Z,3.35
2023-04-06T17:47:03.045Z,3.28
2023-04-06T17:49:29.857Z,3.35
2023-04-06T17:51:56.634Z,3.42
2023-04-06T17:54:23.505Z,3.38
2023-04-06T17:56:51.819Z,3.70
2023-04-06T17:59:18.885Z,3.85
2023-04-06T18:01:45.788Z,4.05
2023-04-06T18:06:39.527Z,5.00
2023-04-06T18:09:06.598Z,4.47
2023-04-06T18:11:33.427Z,4.75
2023-04-06T18:14:00.282Z,3.58
2023-04-06T18:16:28.289Z,4.22
2023-04-06T18:18:56.264Z,4.38
2023-04-06T18:21:23.135Z,4.10
2023-04-06T18:23:50.188Z,5.70
2023-04-06T18:28:45.774Z,4.55
2023-04-06T18:31:12.800Z,4.75
2023-04-06T18:33:39.595Z,4.00
2023-04-06T18:36:06.867Z,3.88
2023-04-06T18:38:33.651Z,4.22
2023-04-06T18:41:00.507Z,3.70
2023-04-06T18:43:28.489Z,4.35
2023-04-06T18:45:55.352Z,3.97
2023-04-06T18:48:22.114Z,4.50
2023-04-06T18:50:58.817Z,4.70
2023-04-06T18:53:25.946Z,4.20
2023-04-06T18:55:52.676Z,4.38
2023-04-06T18:58:19.611Z,4.78
2023-04-06T19:00:46.478Z,4.15
2023-04-06T19:03:13.425Z,4.75
2023-04-06T19:05:41.817Z,3.78
2023-04-06T19:08:08.862Z,5.13
2023-04-06T19:10:37.320Z,4.25
2023-04-06T19:13:04.580Z,4.43
2023-04-06T19:15:31.960Z,4.50
2023-04-06T19:17:59.297Z,4.75
2023-04-06T19:20:26.225Z,4.57
2023-04-06T19:25:20.246Z,4.93
2023-04-06T19:30:13.978Z,5.22
2023-04-06T19:32:41.255Z,5.40
2023-04-06T19:35:08.771Z,6.20
2023-04-06T19:37:37.748Z,5.72
2023-04-06T19:40:10.891Z,5.38
2023-04-06T19:42:38.695Z,5.20
2023-04-06T19:45:06.690Z,5.88
2023-04-06T19:47:35.425Z,6.05
2023-04-06T19:50:03.545Z,6.05
2023-04-06T19:52:31.464Z,5.13
2023-04-06T19:55:01.849Z,6.13
2023-04-06T19:57:28.647Z,5.80
2023-04-06T19:59:56.220Z,6.90
2023-04-06T20:02:24.351Z,7.05
2023-04-06T20:04:51.198Z,6.22
2023-04-06T20:07:18.074Z,6.88
2023-04-06T20:09:44.855Z,6.15
2023-04-06T20:12:11.630Z,6.20
2023-04-06T20:14:38.524Z,5.88
2023-04-06T20:17:05.655Z,7.00
2023-04-06T20:19:32.536Z,7.13
2023-04-06T20:22:02.753Z,7.15
2023-04-06T20:24:31.421Z,7.38
2023-04-06T20:26:58.332Z,8.25
2023-04-06T20:29:25.392Z,8.00
2023-04-06T20:31:52.248Z,8.13
2023-04-06T20:34:19.315Z,8.43
2023-04-06T20:36:46.420Z,9.60
2023-04-06T20:39:13.265Z,8.90
2023-04-06T20:41:40.071Z,9.80
2023-04-06T20:44:07.042Z,10.15
2023-04-06T20:49:00.827Z,12.85
2023-04-06T20:53:54.231Z,10.50
2023-04-06T20:56:22.010Z,11.60
2023-04-06T20:58:49.257Z,11.23
2023-04-06T21:01:17.710Z,12.82
2023-04-06T21:03:45.141Z,11.80
2023-04-06T21:06:12.214Z,13.05
2023-04-06T21:11:06.270Z,13.05
2023-04-06T21:13:33.800Z,14.18
2023-04-06T21:16:01.716Z,14.23
2023-04-06T21:18:30.777Z,12.77
2023-04-06T21:20:57.797Z,12.43
2023-04-06T21:23:24.750Z,12.73
2023-04-06T21:28:19.053Z,13.67
2023-04-06T21:30:45.853Z,14.25
2023-04-06T21:33:12.703Z,14.27
2023-04-06T21:35:40.620Z,14.60
2023-04-06T21:38:08.501Z,13.27
2023-04-06T21:40:35.520Z,15.15
2023-04-06T21:45:29.035Z,13.98
2023-04-06T21:47:55.955Z,15.25
2023-04-06T21:50:22.766Z,14.60
2023-04-06T21:52:49.567Z,16.40
2023-04-06T21:55:16.508Z,16.27
2023-04-06T22:00:12.044Z,17.63
2023-04-06T22:02:48.430Z,16.67
2023-04-06T22:05:18.276Z,16.52
2023-04-06T22:10:12.686Z,16.55
2023-04-06T22:12:39.520Z,17.83
2023-04-06T22:15:06.908Z,18.25
2023-04-06T22:17:33.817Z,18.63
2023-04-06T22:22:27.452Z,17.27
2023-04-06T22:24:54.203Z,16.38
2023-04-06T22:27:21.041Z,20.50
2023-04-06T22:29:47.775Z,17.15
2023-04-06T22:32:14.475Z,18.73
2023-04-06T22:34:41.318Z,17.48
2023-04-06T22:37:08.191Z,17.52
2023-04-06T22:39:35.058Z,18.38
2023-04-06T22:42:02.166Z,19.23
2023-04-06T22:46:55.741Z,18.20
2023-04-06T22:49:22.922Z,17.52
2023-04-06T22:51:49.679Z,19.38
2023-04-06T22:54:16.492Z,16.73
2023-04-06T22:56:43.217Z,18.40
2023-04-06T22:59:10.557Z,18.10
2023-04-06T23:01:37.532Z,19.02
2023-04-06T23:04:04.733Z,15.90
2023-04-06T23:08:58.184Z,17.00
2023-04-06T23:11:24.933Z,18.73
2023-04-06T23:13:51.691Z,15.90
2023-04-06T23:16:18.529Z,18.23
2023-04-06T23:18:45.369Z,17.80
2023-04-06T23:21:12.075Z,16.52
2023-04-06T23:23:38.827Z,18.00
2023-04-06T23:26:06.060Z,18.58
2023-04-06T23:28:32.774Z,16.52
2023-04-06T23:30:59.450Z,15.20
2023-04-06T23:33:27.056Z,19.13
2023-04-06T23:35:53.882Z,16.63
2023-04-06T23:38:20.802Z,17.95
2023-04-06T23:40:47.949Z,17.40
2023-04-06T23:43:14.744Z,16.13
2023-04-06T23:45:42.596Z,17.52
2023-04-06T23:48:10.168Z,15.57
2023-04-06T23:50:37.592Z,16.88
2023-04-06T23:53:04.694Z,18.08
2023-04-06T23:55:31.559Z,18.75
2023-04-06T23:57:58.759Z,16.42
